Flight Track Log - Related Links

Times and Time Zones

All times are in EDT time to prevent confusion due to time zone crossing. See the BAW283 flight status page for this flight to view local times or setup timezone preferences in your user account.

Time Position Orientation Groundspeed Altitude Reporting Facility
EDT Latitude Longitude Course Direction KTS MPH feet Rate Location/Type
Mon 07:13:43 AM 51.4710 -0.4850 North 22 25  Level FlightAware ADS-B
Mon 07:14:15 AM 51.4700 -0.4850 180° South 24 28 31 Level FlightAware ADS-B
Mon 07:15:02 AM 51.4710 -0.4840 32° Northeast 25 29 33 Level FlightAware ADS-B
Mon 07:16:55 AM 51.4670 -0.4770 310° West 32 37 34 Level FlightAware ADS-B
Mon 07:17:00 AM 51.6306 -0.7916 310° West  Level FlightAware Approximate
Mon 07:18:16 AM 51.4670 -0.4670 90° East 30 35  Level FlightAware ADS-B
Mon 07:18:42 AM 51.4710 -0.4670 360° North 30 35 44 Level FlightAware ADS-B
Mon 07:20:00 AM 51.4670 -0.4570 123° Southeast 28 32 46 Level FlightAware ADS-B
Mon 07:22:00 AM 51.6284 -0.7710 310° West  Level FlightAware Approximate
Mon 07:22:24 AM 51.4710 -0.4450 310° West 32 37  Level FlightAware ADS-B
Mon 07:24:25 AM 51.4680 -0.4410 140° Southeast 18 21 69 Level FlightAware ADS-B
Mon 07:25:31 AM 51.4670 -0.4400 148° Southeast 16 18 96 Level FlightAware ADS-B
Mon 07:25:57 AM 51.4670 -0.4380 90° East 20 23 122 Level FlightAware ADS-B
Mon 07:26:17 AM 51.4670 -0.4370 90° East 14 16 137 Level FlightAware ADS-B
Mon 07:28:00 AM 51.6048 -0.7074 309° West  Level FlightAware Approximate
Mon 07:29:00 AM 51.6848 -0.8656 309° West  Level FlightAware Approximate
Mon 07:29:02 AM 51.4650 -0.4520 309° West 120 138  Level FlightAware ADS-B
Mon 07:29:36 AM 51.4650 -0.4900 270° West 164 189 500 1,143 Climbing FlightAware ADS-B
Mon 07:30:05 AM 51.4702 -0.5258 283° West 173 199 1,200 1,269 Climbing FlightAware ADS-B
Mon 07:30:28 AM 51.4793 -0.5540 297° West 191 220 1,600 1,404 Climbing FlightAware ADS-B
Mon 07:30:52 AM 51.4890 -0.5847 297° West 196 226 2,300 1,846 Climbing FlightAware ADS-B
Mon 07:31:07 AM 51.4954 -0.6040 298° West 195 224 2,800 1,935 Climbing FlightAware ADS-B
Mon 07:31:23 AM 51.5019 -0.6234 298° West 197 227 3,300 2,000 Climbing FlightAware ADS-B
Mon 07:31:40 AM 51.5092 -0.6467 297° West 196 226 3,900 1,929 Climbing FlightAware ADS-B
Mon 07:31:51 AM 51.5134 -0.6596 297° West 199 229 4,200 1,714 Climbing FlightAware ADS-B
Mon 07:31:54 AM 51.5152 -0.6648 299° West 200 230 4,300 1,714 Climbing FlightAware ADS-B
Mon 07:31:58 AM 51.5172 -0.6684 312° West 201 231 4,400 1,714 Climbing FlightAware ADS-B
Mon 07:32:01 AM 51.5194 -0.6716 318° Northwest 205 236 4,500 1,714 Climbing FlightAware ADS-B
Mon 07:32:05 AM 51.5229 -0.6760 322° Northwest 210 242 4,600 857 Climbing FlightAware ADS-B
Mon 07:32:08 AM 51.5257 -0.6780 336° Northwest 216 249 4,600 750 Level FlightAware ADS-B
Mon 07:32:13 AM 51.5301 -0.6800 344° North 222 255 4,700 1,000 Climbing FlightAware ADS-B
Mon 07:32:20 AM 51.5380 -0.6821 350° North 230 265 4,800 800 Climbing FlightAware ADS-B
Mon 07:32:28 AM 51.5457 -0.6832 355° North 238 274 4,900 923 Climbing FlightAware ADS-B
Mon 07:32:33 AM 51.5522 -0.6836 358° North 245 282 5,000 1,143 Climbing FlightAware ADS-B
Mon 07:32:49 AM 51.5702 -0.6841 359° North 259 298 5,300 1,355 Climbing FlightAware ADS-B
Mon 07:33:04 AM 51.5892 -0.6851 358° North 271 312 5,700 1,688 Climbing FlightAware ADS-B
Mon 07:33:21 AM 51.6117 -0.6870 357° North 287 330 6,200 2,000 Climbing FlightAware ADS-B
Mon 07:33:37 AM 51.6332 -0.6892 356° North 299 344 6,800 1,742 Climbing FlightAware ADS-B
Mon 07:33:52 AM 51.6546 -0.6918 356° North 312 359 7,100 1,043 Climbing FlightAware ADS-B
Mon 07:34:00 AM 51.6658 -0.6929 356° North 321 369 7,200 1,000 Climbing FlightAware ADS-B
Mon 07:34:04 AM 51.6720 -0.6927 North 328 377 7,300 667 Climbing FlightAware ADS-B
Mon 07:34:09 AM 51.6792 -0.6917 North 338 389 7,300 667 Level FlightAware ADS-B
Mon 07:34:13 AM 51.6859 -0.6892 13° North 344 396 7,400 923 Climbing FlightAware ADS-B
Mon 07:34:22 AM 51.6996 -0.6840 13° North 355 409 7,500 1,000 Climbing FlightAware ADS-B
Mon 07:34:37 AM 51.7241 -0.6720 17° North 368 423 7,800 1,355 Climbing FlightAware ADS-B
Mon 07:34:53 AM 51.7506 -0.6606 15° North 378 435 8,200 1,765 Climbing FlightAware ADS-B
Mon 07:35:11 AM 51.7807 -0.6467 16° North 385 443 8,800 2,182 Climbing FlightAware ADS-B
Mon 07:35:26 AM 51.8067 -0.6351 15° North 389 448 9,400 2,400 Climbing FlightAware ADS-B
Mon 07:35:41 AM 51.8330 -0.6232 16° North 393 452 10,000 2,204 Climbing FlightAware ADS-B
Mon 07:36:15 AM 51.8929 -0.5957 16° North 401 461 11,200 2,123 Climbing FlightAware ADS-B
Mon 07:36:46 AM 51.9492 -0.5688 16° North 409 471 12,300 2,032 Climbing FlightAware ADS-B
Mon 07:37:17 AM 52.0055 -0.5424 16° North 415 478 13,300 1,953 Climbing FlightAware ADS-B
Mon 07:37:29 AM 52.0282 -0.5351 11° North 414 476 13,700 1,826 Climbing FlightAware ADS-B
Mon 07:37:40 AM 52.0504 -0.5335 North 411 473 14,000 1,929 Climbing FlightAware ADS-B
Mon 07:37:57 AM 52.0818 -0.5404 352° North 404 465 14,600 2,087 Climbing FlightAware ADS-B
Mon 07:38:03 AM 52.0919 -0.5445 346° North 403 464 14,800 2,000 Climbing FlightAware ADS-B
Mon 07:38:36 AM 52.1457 -0.5915 332° Northwest 395 455 15,900 1,909 Climbing FlightAware ADS-B
Mon 07:39:09 AM 52.1965 -0.6466 326° Northwest 401 461 16,900 1,754 Climbing FlightAware ADS-B
Mon 07:39:41 AM 52.2464 -0.7004 327° Northwest 408 470 17,800 1,662 Climbing FlightAware ADS-B
Mon 07:40:14 AM 52.2980 -0.7546 327° Northwest 414 476 18,700 1,683 Climbing FlightAware ADS-B
Mon 07:41:03 AM 52.3784 -0.8408 327° Northwest 419 482 20,100 1,558 Climbing FlightAware ADS-B
Mon 07:41:58 AM 52.4680 -0.9360 327° Northwest 430 495 21,400 1,421 Climbing FlightAware ADS-B
Mon 07:42:19 AM 52.5047 -0.9743 328° Northwest 425 489 21,900 1,472 Climbing FlightAware ADS-B
Mon 07:42:51 AM 52.5596 -1.0314 328° Northwest 438 504 22,700 1,500 Climbing FlightAware ADS-B
Mon 07:42:59 AM 52.5727 -1.0432 331° Northwest 441 507 22,900 1,455 Climbing FlightAware ADS-B
Mon 07:43:24 AM 52.6187 -1.0822 333° Northwest 446 513 23,500 1,368 Climbing FlightAware ADS-B
Mon 07:43:56 AM 52.6785 -1.1279 335° Northwest 450 518 24,200 1,313 Climbing FlightAware ADS-B
Mon 07:44:28 AM 52.7395 -1.1740 335° Northwest 453 521 24,900 1,103 Climbing FlightAware ADS-B
Mon 07:45:23 AM 52.8462 -1.2572 335° Northwest 463 533 25,800 876 Climbing FlightAware ADS-B
Mon 07:45:57 AM 52.9090 -1.3060 335° Northwest 470 541 26,200 828 Climbing FlightAware ADS-B
Mon 07:46:21 AM 52.9601 -1.3463 335° Northwest 467 537 26,600 1,000 Climbing FlightAware ADS-B
Mon 07:46:57 AM 53.0306 -1.4009 335° Northwest 467 537 27,200 1,023 Climbing FlightAware ADS-B
Mon 07:47:49 AM 53.1360 -1.4830 335° Northwest 485 558 28,100 968 Climbing FlightAware ADS-B
Mon 07:47:59 AM 53.1560 -1.4994 334° Northwest 483 556 28,200 1,300 Climbing FlightAware ADS-B
Mon 07:48:49 AM 53.2587 -1.5809 335° Northwest 487 560 29,400 1,407 Climbing FlightAware ADS-B
Mon 07:49:20 AM 53.3205 -1.6303 334° Northwest 487 560 30,100 1,247 Climbing FlightAware ADS-B
Mon 07:50:06 AM 53.4110 -1.7059 334° Northwest 473 544 31,000 1,200 Climbing FlightAware ADS-B
Mon 07:50:30 AM 53.4550 -1.7490 330° Northwest 471 542 31,500 1,053 Climbing FlightAware ADS-B
Mon 07:51:03 AM 53.5160 -1.8116 329° Northwest 471 542 32,000 1,048 Climbing FlightAware ADS-B
Mon 07:51:33 AM 53.5723 -1.8709 328° Northwest 467 537 32,600 947 Climbing FlightAware ADS-B
Mon 07:52:19 AM 53.6530 -1.9550 328° Northwest 466 536 33,200 815 Climbing FlightAware ADS-B
Mon 07:52:54 AM 53.7170 -2.0220 328° Northwest 465 535 33,700 676 Climbing FlightAware ADS-B
Mon 07:53:30 AM 53.7830 -2.0930 328° Northwest 466 536 34,000 240 Climbing FlightAware ADS-B
Mon 07:54:09 AM 53.8540 -2.1710 327° Northwest 467 537 34,000  Level FlightAware ADS-B
Mon 07:54:54 AM 53.9350 -2.2590 327° Northwest 470 541 34,000  Level FlightAware ADS-B
Mon 07:55:33 AM 54.0060 -2.3380 327° Northwest 472 543 34,000  Level FlightAware ADS-B
Mon 07:56:14 AM 54.0820 -2.4220 327° Northwest 474 545 34,000  Level FlightAware ADS-B
Mon 07:56:55 AM 54.1590 -2.5070 327° Northwest 474 545 34,000  Level FlightAware ADS-B
Mon 07:57:26 AM 54.2140 -2.5690 327° Northwest 475 547 34,000  Level FlightAware ADS-B
Mon 07:58:17 AM 54.3090 -2.6760 327° Northwest 471 542 34,000  Level FlightAware ADS-B
Mon 07:58:51 AM 54.3710 -2.7360 331° Northwest 472 543 34,000  Level FlightAware ADS-B
Mon 07:59:38 AM 54.4650 -2.8120 335° Northwest 472 543 34,000  Level FlightAware ADS-B
Mon 08:00:22 AM 54.5520 -2.8800 336° Northwest 473 544 34,000  Level FlightAware ADS-B
Mon 08:01:03 AM 54.6350 -2.9470 335° Northwest 472 543 34,000  Level FlightAware ADS-B
Mon 08:01:42 AM 54.7130 -3.0090 335° Northwest 471 542 34,000  Level FlightAware ADS-B
Mon 08:02:26 AM 54.7980 -3.0790 335° Northwest 471 542 34,000  Level FlightAware ADS-B
Mon 08:02:55 AM 54.8520 -3.1250 334° Northwest 470 541 34,000  Level FlightAware ADS-B
Mon 08:03:37 AM 54.9310 -3.1900 335° Northwest 470 541 34,000  Level FlightAware ADS-B
Mon 08:04:17 AM 55.0160 -3.2610 334° Northwest 469 540 34,000  Level FlightAware ADS-B
Mon 08:04:45 AM 55.0690 -3.3050 335° Northwest 468 539 34,000  Level FlightAware ADS-B
Mon 08:05:47 AM 55.1660 -3.3870 334° Northwest 468 539 34,000  Level FlightAware ADS-B
Mon 08:06:17 AM 55.2510 -3.4580 335° Northwest 468 539 34,000  Level FlightAware ADS-B
Mon 08:07:01 AM 55.3370 -3.5320 334° Northwest 468 539 34,000  Level FlightAware ADS-B
Mon 08:07:41 AM 55.4130 -3.5960 334° Northwest 470 541 34,000  Level FlightAware ADS-B
Mon 08:08:22 AM 55.4960 -3.6670 334° Northwest 470 541 34,000  Level FlightAware ADS-B
Mon 08:09:03 AM 55.5750 -3.7340 334° Northwest 470 541 34,000  Level FlightAware ADS-B
Mon 08:09:34 AM 55.6340 -3.7860 334° Northwest 468 539 34,000  Level FlightAware ADS-B
Mon 08:10:14 AM 55.7110 -3.8510 335° Northwest 469 540 34,000  Level FlightAware ADS-B
Mon 08:10:56 AM 55.7950 -3.9240 334° Northwest 469 540 34,000  Level FlightAware ADS-B
Mon 08:11:30 AM 55.8550 -3.9760 334° Northwest 470 541 34,000  Level FlightAware ADS-B
Mon 08:12:14 AM 55.9440 -4.0550 334° Northwest 468 539 34,000  Level FlightAware ADS-B
Mon 08:12:53 AM 56.0200 -4.1210 334° Northwest 466 536 34,000  Level FlightAware ADS-B
Mon 08:13:33 AM 56.0950 -4.1960 331° Northwest 464 534 34,000  Level FlightAware ADS-B
Mon 08:14:03 AM 56.1510 -4.2530 330° Northwest 464 534 34,000  Level FlightAware ADS-B
Mon 08:14:44 AM 56.2250 -4.3290 330° Northwest 464 534 34,000  Level FlightAware ADS-B
Mon 08:15:38 AM 56.3290 -4.4320 331° Northwest 459 528 34,000  Level FlightAware ADS-B
Mon 08:16:18 AM 56.4030 -4.5080 330° Northwest 464 534 34,000  Level FlightAware ADS-B
Mon 08:16:48 AM 56.4600 -4.5660 331° Northwest 463 533 34,000  Level FlightAware ADS-B
Mon 08:17:33 AM 56.5430 -4.6490 331° Northwest 458 527 34,000  Level FlightAware ADS-B
Mon 08:17:58 AM 56.5890 -4.6970 330° Northwest 449 517 34,000  Level FlightAware ADS-B
Mon 08:18:53 AM 56.6900 -4.8000 331° Northwest 447 514 34,000  Level FlightAware ADS-B
Mon 08:19:23 AM 56.7440 -4.8560 330° Northwest 445 512 34,000  Level FlightAware ADS-B
Mon 08:20:03 AM 56.8170 -4.9320 330° Northwest 443 510 34,000  Level FlightAware ADS-B
Mon 08:20:33 AM 56.8690 -4.9860 330° Northwest 448 516 34,000  Level FlightAware ADS-B
Mon 08:21:28 AM 56.9700 -5.0910 330° Northwest 443 510 34,000  Level FlightAware ADS-B
Mon 08:21:59 AM 57.0220 -5.1460 330° Northwest 451 519 34,000  Level FlightAware ADS-B
Mon 08:22:49 AM 57.1120 -5.2420 330° Northwest 452 520 34,000  Level FlightAware ADS-B
Mon 08:23:41 AM 57.2100 -5.3460 330° Northwest 445 512 34,000  Level FlightAware ADS-B
Mon 08:24:21 AM 57.2810 -5.4210 330° Northwest 451 519 34,000  Level FlightAware ADS-B
Mon 08:25:06 AM 57.3630 -5.5100 330° Northwest 450 518 34,000  Level FlightAware ADS-B
Mon 08:25:36 AM 57.4160 -5.5660 330° Northwest 449 517 34,000  Level FlightAware ADS-B
Mon 08:26:16 AM 57.4880 -5.6460 329° Northwest 449 517 34,000  Level FlightAware ADS-B
Mon 08:26:56 AM 57.5610 -5.7240 330° Northwest 450 518 34,000  Level FlightAware ADS-B
Mon 08:27:48 AM 57.6530 -5.8230 330° Northwest 448 516 34,000  Level FlightAware ADS-B
Mon 08:28:33 AM 57.7290 -5.9080 329° Northwest 446 513 34,000  Level FlightAware ADS-B
Mon 08:29:03 AM 57.7870 -5.9720 330° Northwest 444 511 34,000  Level FlightAware ADS-B
Mon 08:29:43 AM 57.8600 -6.0520 330° Northwest 435 501 34,000  Level FlightAware ADS-B
Mon 08:30:14 AM 57.9130 -6.1130 329° Northwest 435 501 34,000  Level FlightAware ADS-B
Mon 08:31:01 AM 57.9920 -6.2010 329° Northwest 436 502 34,000  Level FlightAware ADS-B
Mon 08:31:40 AM 58.0640 -6.2800 330° Northwest 435 501 34,000  Level FlightAware ADS-B
Mon 08:32:20 AM 58.1350 -6.3620 329° Northwest 435 501 34,000  Level FlightAware ADS-B
Mon 08:33:01 AM 58.2050 -6.4410 329° Northwest 434 499 34,000  Level FlightAware ADS-B
Mon 08:33:40 AM 58.2750 -6.5200 329° Northwest 433 498 34,000  Level FlightAware ADS-B
Mon 08:34:16 AM 58.3370 -6.5920 329° Northwest 432 497 34,000  Level FlightAware ADS-B
Mon 08:34:56 AM 58.4010 -6.6640 329° Northwest 431 496 34,000  Level FlightAware ADS-B
Mon 08:35:36 AM 58.4750 -6.7490 329° Northwest 431 496 34,000  Level FlightAware ADS-B
Mon 08:36:32 AM 58.5710 -6.8620 328° Northwest 432 497 34,000  Level FlightAware ADS-B
Mon 08:37:11 AM 58.6410 -6.9450 328° Northwest 433 498 34,000  Level FlightAware ADS-B
Mon 08:37:51 AM 58.7090 -7.0220 330° Northwest 433 498 34,000  Level FlightAware ADS-B
Mon 08:38:32 AM 58.7800 -7.1060 328° Northwest 438 504 34,000  Level FlightAware ADS-B
Mon 08:39:17 AM 58.8590 -7.1990 329° Northwest 436 502 34,000  Level FlightAware ADS-B
Mon 08:40:04 AM 58.9190 -7.2710 328° Northwest 436 502 34,000  Level FlightAware ADS-B
Mon 08:40:37 AM 58.9770 -7.3400 328° Northwest 435 501 34,000  Level FlightAware ADS-B
Mon 08:41:19 AM 59.0470 -7.4270 327° Northwest 434 499 34,000  Level FlightAware ADS-B
Mon 08:41:51 AM 59.1030 -7.4920 329° Northwest 433 498 34,000 72 Level FlightAware ADS-B
Mon 08:42:42 AM 59.1870 -7.5920 329° Northwest 431 496 34,100  Climbing FlightAware ADS-B
Mon 08:43:15 AM 59.2460 -7.6660 327° Northwest 432 497 34,000 -88 Descending FlightAware ADS-B
Mon 08:43:50 AM 59.3060 -7.7400 328° Northwest 432 497 34,000  Level FlightAware ADS-B
Mon 08:44:22 AM 59.3620 -7.8080 328° Northwest 432 497 34,000  Level FlightAware ADS-B
Mon 08:45:05 AM 59.4290 -7.8910 328° Northwest 430 495 34,000  Level FlightAware ADS-B
Mon 08:45:43 AM 59.4860 -7.9630 327° Northwest 431 496 34,000  Level FlightAware ADS-B
Mon 08:46:27 AM 59.5690 -8.0650 328° Northwest 430 495 34,000  Level FlightAware ADS-B
Mon 08:47:07 AM 59.6380 -8.1510 328° Northwest 430 495 34,000  Level FlightAware ADS-B
Mon 08:47:38 AM 59.6890 -8.2160 327° Northwest 430 495 34,000  Level FlightAware ADS-B
Mon 08:48:18 AM 59.7570 -8.3010 328° Northwest 430 495 34,000  Level FlightAware ADS-B
Mon 08:49:00 AM 59.8190 -8.3790 328° Northwest 430 495 34,000  Level FlightAware ADS-B
Mon 08:49:46 AM 59.9050 -8.4900 327° Northwest 431 496 34,000  Level FlightAware ADS-B
Mon 08:50:32 AM 59.9690 -8.5720 327° Northwest 431 496 34,000  Level FlightAware ADS-B
Mon 08:51:35 AM 60.0860 -8.7230 327° Northwest 431 496 34,000  Level FlightAware ADS-B
Mon 08:52:19 AM 60.1590 -8.8160 328° Northwest 430 495 34,000  Level FlightAware ADS-B
Mon 08:52:58 AM 60.2230 -8.9020 326° Northwest 429 494 34,000  Level FlightAware ADS-B
Mon 08:53:37 AM 60.2900 -8.9890 327° Northwest 429 494 34,000  Level FlightAware ADS-B
Mon 08:54:11 AM 60.3490 -9.0670 327° Northwest 429 494 34,000  Level FlightAware ADS-B
Mon 08:54:59 AM 60.4290 -9.1730 327° Northwest 428 493 34,000  Level FlightAware ADS-B
Mon 08:55:32 AM 60.4850 -9.2480 327° Northwest 429 494 34,000  Level FlightAware ADS-B
Mon 08:56:18 AM 60.5530 -9.3390 327° Northwest 430 495 34,000  Level FlightAware ADS-B
Mon 08:56:55 AM 60.6150 -9.4210 327° Northwest 430 495 34,000  Level FlightAware ADS-B
Mon 08:57:45 AM 60.6920 -9.5360 324° Northwest 429 494 34,000  Level FlightAware ADS-B
Mon 08:59:00 AM 60.8100 -9.7160 323° Northwest 430 495 34,000  Level FlightAware ADS-B
Mon 08:59:48 AM 60.8750 -9.8170 323° Northwest 430 495 34,000  Level FlightAware ADS-B
Mon 09:00:24 AM 60.9240 -9.8920 323° Northwest 430 495 34,000  Level FlightAware ADS-B
Mon 09:01:13 AM 60.9900 -9.9950 323° Northwest 430 495 34,000  Level FlightAware ADS-B
Mon 09:01:49 AM 61.0380 -10.0700 323° Northwest 430 495 34,000  Level FlightAware ADS-B
Mon 09:02:25 AM 61.0870 -10.1460 323° Northwest 430 495 34,000  Level FlightAware ADS-B
Mon 09:03:01 AM 61.1350 -10.2220 323° Northwest 430 495 34,000  Level FlightAware ADS-B
Mon 09:03:37 AM 61.1840 -10.2980 323° Northwest 430 495 34,000  Level FlightAware ADS-B
Mon 09:04:25 AM 61.2490 -10.3990 323° Northwest 430 495 34,000  Level FlightAware ADS-B
Mon 09:05:01 AM 61.2970 -10.4750 323° Northwest 430 495 34,000  Level FlightAware ADS-B
Mon 09:05:46 AM 61.3580 -10.5710 323° Northwest 430 495 34,000  Level FlightAware ADS-B
Mon 09:06:34 AM 61.4230 -10.6730 323° Northwest 430 495 34,000  Level FlightAware ADS-B
Mon 09:07:16 AM 61.5500 -11.1340 300° West 428 493 34,000  Level FlightAware ADS-B
Mon 09:07:59 AM 61.6090 -11.2580 315° West 429 494 34,000  Level FlightAware ADS-B
Mon 09:08:37 AM 61.6620 -11.3700 315° West 431 496 34,000  Level FlightAware ADS-B
Mon 09:09:22 AM 61.7260 -11.5080 314° West 432 497 34,000  Level FlightAware ADS-B
Mon 09:09:51 AM 61.7660 -11.5950 314° West 433 498 34,000  Level FlightAware ADS-B
Mon 09:10:33 AM 61.8250 -11.7200 315° West 435 501 34,000  Level FlightAware ADS-B
Mon 09:11:15 AM 61.8820 -11.8450 314° West 435 501 34,000  Level FlightAware ADS-B
Mon 09:11:56 AM 61.9410 -11.9740 314° West 437 503 34,000  Level FlightAware ADS-B
Mon 09:12:38 AM 62.0000 -12.1070 313° West 438 504 34,000  Level FlightAware ADS-B
Mon 09:13:21 AM 62.0600 -12.2380 314° West 439 505 34,000  Level FlightAware ADS-B
Mon 09:14:01 AM 62.1160 -12.3630 314° West 442 509 34,000  Level FlightAware ADS-B
Mon 09:14:41 AM 62.1730 -12.4900 314° West 444 511 34,000  Level FlightAware ADS-B
Mon 09:15:28 AM 62.2390 -12.6400 313° West 445 512 34,000  Level FlightAware ADS-B
Mon 09:16:08 AM 62.2960 -12.7690 314° West 447 514 34,000  Level FlightAware ADS-B
Mon 09:16:40 AM 62.3420 -12.8750 313° West 447 514 34,000  Level FlightAware ADS-B
Mon 09:17:21 AM 62.3990 -13.0050 313° West 449 517 34,000  Level FlightAware ADS-B
Mon 09:18:01 AM 62.4550 -13.1360 313° West 448 516 34,000  Level FlightAware ADS-B
Mon 09:18:41 AM 62.5120 -13.2670 313° West 449 517 34,000  Level FlightAware ADS-B
Mon 09:19:21 AM 62.5690 -13.4030 312° West 451 519 34,000  Level FlightAware ADS-B
Mon 09:20:02 AM 62.6260 -13.5360 313° West 452 520 34,000  Level FlightAware ADS-B
Mon 09:20:40 AM 62.6800 -13.6630 313° West 455 524 34,000  Level FlightAware ADS-B
Mon 09:21:24 AM 62.7430 -13.8130 313° West 458 527 34,000  Level FlightAware ADS-B
Mon 09:22:03 AM 62.7990 -13.9460 313° West 460 529 34,000  Level FlightAware ADS-B
Mon 09:22:44 AM 62.8570 -14.0880 312° West 463 533 34,000  Level FlightAware ADS-B
Mon 09:23:27 AM 62.9190 -14.2380 312° West 465 535 34,000  Level FlightAware ADS-B
Mon 09:24:09 AM 62.9790 -14.3860 312° West 468 539 34,000  Level FlightAware ADS-B
Mon 09:24:39 AM 63.0240 -14.4960 312° West 470 541 34,000  Level FlightAware ADS-B
Mon 09:25:24 AM 63.0880 -14.6540 312° West 472 543 34,000  Level FlightAware ADS-B
Mon 09:26:03 AM 63.1450 -14.7980 311° West 474 545 34,000  Level FlightAware ADS-B
Mon 09:26:43 AM 63.2030 -14.9430 312° West 475 547 34,000  Level FlightAware ADS-B
Mon 09:27:30 AM 63.2710 -15.1120 312° West 476 548 34,000  Level FlightAware ADS-B
Mon 09:28:10 AM 63.3280 -15.2590 311° West 477 549 34,000  Level FlightAware ADS-B
Mon 09:28:51 AM 63.3890 -15.4150 311° West 477 549 34,000  Level FlightAware ADS-B
Mon 09:29:32 AM 63.4470 -15.5640 311° West 477 549 34,000  Level FlightAware ADS-B
Mon 09:30:04 AM 63.4930 -15.6840 311° West 478 550 34,000  Level FlightAware ADS-B
Mon 09:30:42 AM 63.5480 -15.8300 310° West 480 552 34,000  Level FlightAware ADS-B
Mon 09:31:23 AM 63.6080 -15.9860 311° West 480 552 34,000  Level FlightAware ADS-B
Mon 09:31:54 AM 63.6510 -16.1000 310° West 481 554 34,000  Level FlightAware ADS-B
Mon 09:32:26 AM 63.6960 -16.2180 311° West 481 554 34,000  Level FlightAware ADS-B
Mon 09:33:08 AM 63.7580 -16.3830 310° West 481 554 34,000  Level FlightAware ADS-B
Mon 09:33:39 AM 63.8030 -16.5050 310° West 481 554 34,000  Level FlightAware ADS-B
Mon 09:34:22 AM 63.8630 -16.6680 310° West 482 555 34,000  Level FlightAware ADS-B
Mon 09:35:05 AM 63.9250 -16.8390 310° West 482 555 34,000  Level FlightAware ADS-B
Mon 09:35:42 AM 63.9770 -16.9790 310° West 482 555 34,000  Level FlightAware ADS-B
Mon 09:36:27 AM 64.0410 -17.1590 309° West 481 554 34,000  Level FlightAware ADS-B
Mon 09:37:10 AM 64.1010 -17.3240 310° West 481 554 34,000  Level FlightAware ADS-B
Mon 09:37:51 AM 64.1570 -17.4810 309° West 482 555 34,000  Level FlightAware ADS-B
Mon 09:38:22 AM 64.2020 -17.6080 309° West 482 555 34,000  Level FlightAware ADS-B
Mon 09:39:01 AM 64.2570 -17.7680 308° West 483 556 34,000  Level FlightAware ADS-B
Mon 09:39:43 AM 64.3150 -17.9320 309° West 486 559 34,000  Level FlightAware ADS-B
Mon 09:40:26 AM 64.3760 -18.1070 309° West 488 562 34,000  Level FlightAware ADS-B
Mon 09:41:10 AM 64.4370 -18.2870 308° West 489 563 34,000  Level FlightAware ADS-B
Mon 09:41:47 AM 64.4890 -18.4390 309° West 490 564 34,000  Level FlightAware ADS-B
Mon 09:42:20 AM 64.5360 -18.5790 308° West 491 565 34,000  Level FlightAware ADS-B
Mon 09:42:53 AM 64.5820 -18.7130 309° West 493 567 34,000  Level FlightAware ADS-B
Mon 09:43:32 AM 64.6370 -18.8800 308° West 494 568 34,000  Level FlightAware ADS-B
Mon 09:44:15 AM 64.6970 -19.0610 308° West 494 568 34,000  Level FlightAware ADS-B
Mon 09:44:44 AM 64.7360 -19.1800 308° West 496 571 34,000  Level FlightAware ADS-B
Mon 09:45:28 AM 64.7970 -19.3680 307° West 497 572 34,000  Level FlightAware ADS-B
Mon 09:46:10 AM 64.8560 -19.5480 308° West 498 573 34,000  Level FlightAware ADS-B
Mon 09:46:48 AM 64.9090 -19.7120 307° West 499 574 34,000  Level FlightAware ADS-B
Mon 09:47:34 AM 64.9740 -19.9160 307° West 500 575 34,000  Level FlightAware ADS-B
Mon 09:48:15 AM 65.0250 -20.0970 304° West 499 574 34,000  Level FlightAware ADS-B
Mon 09:48:57 AM 65.0750 -20.2950 301° West 501 577 34,000  Level FlightAware ADS-B
Mon 09:49:39 AM 65.1230 -20.4940 300° West 500 575 34,000  Level FlightAware ADS-B
Mon 09:50:18 AM 65.1690 -20.6790 301° West 500 575 34,000  Level FlightAware ADS-B
Mon 09:51:02 AM 65.2200 -20.8930 300° West 498 573 34,000  Level FlightAware ADS-B
Mon 09:51:34 AM 65.2560 -21.0410 300° West 498 573 34,000  Level FlightAware ADS-B
Mon 09:52:04 AM 65.2910 -21.1890 300° West 498 573 34,000  Level FlightAware ADS-B
Mon 09:52:46 AM 65.3360 -21.3790 300° West 496 571 34,000  Level FlightAware ADS-B
Mon 09:53:26 AM 65.3810 -21.5750 299° West 494 568 34,000  Level FlightAware ADS-B
Mon 09:54:12 AM 65.4330 -21.7900 300° West 494 568 34,000  Level FlightAware ADS-B
Mon 09:55:04 AM 65.4900 -22.0450 298° West 496 571 34,000  Level FlightAware ADS-B
Mon 09:55:44 AM 65.5350 -22.2390 299° West 496 571 34,000  Level FlightAware ADS-B
Mon 09:56:23 AM 65.5780 -22.4280 299° West 498 573 34,000  Level FlightAware ADS-B
Mon 09:57:07 AM 65.6260 -22.6490 298° West 499 574 34,000  Level FlightAware ADS-B
Mon 09:57:49 AM 65.6720 -22.8560 298° West 500 575 34,000  Level FlightAware ADS-B
Mon 09:58:39 AM 65.7250 -23.0930 299° West 501 577 34,000  Level FlightAware ADS-B
Mon 09:59:28 AM 65.7680 -23.3020 297° West 501 577 34,000  Level FlightAware ADS-B
Mon 10:00:16 AM 65.8110 -23.5080 297° West 501 577 34,000  Level FlightAware ADS-B
Mon 10:01:04 AM 65.8540 -23.7140 297° West 501 577 34,000  Level FlightAware ADS-B
Mon 10:01:50 AM 65.8950 -23.9110 297° West 501 577 34,000  Level FlightAware ADS-B
Mon 10:02:29 AM 65.9300 -24.0790 297° West 501 577 34,000  Level FlightAware ADS-B
Mon 10:03:38 AM 65.9920 -24.3760 297° West 501 577 34,000  Level FlightAware ADS-B
Mon 10:04:17 AM 66.0270 -24.5450 297° West 501 577 34,000  Level FlightAware ADS-B
Mon 10:04:51 AM 66.0570 -24.6920 297° West 501 577 34,000  Level FlightAware ADS-B
Mon 10:05:29 AM 66.0910 -24.8560 297° West 501 577 34,000  Level FlightAware ADS-B
Mon 10:06:17 AM 66.1340 -25.0650 297° West 501 577 34,000  Level FlightAware ADS-B
Mon 10:06:51 AM 66.1640 -25.2120 297° West 501 577 34,000  Level FlightAware ADS-B
Mon 10:07:29 AM 66.1980 -25.3770 297° West 501 577 34,000  Level FlightAware ADS-B
Mon 10:08:19 AM 66.2430 -25.5950 297° West 501 577 34,000 -19 Level FlightAware ADS-B
Mon 10:10:00 AM 66.3065 -26.1008 288° West  Level Estimated
Mon 10:11:00 AM 66.3434 -26.4025 287° West  Level Estimated
Mon 10:12:00 AM 66.3798 -26.7051 287° West  Level Estimated
Mon 10:13:00 AM 66.4156 -27.0086 287° West  Level Estimated
Mon 10:14:00 AM 66.4508 -27.3129 286° West  Level Estimated
Mon 10:15:00 AM 66.4853 -27.6181 286° West  Level Estimated
Mon 10:16:00 AM 66.5193 -27.9241 286° West  Level Estimated
Mon 10:17:00 AM 66.5527 -28.2309 285° West  Level Estimated
Mon 10:18:00 AM 66.5855 -28.5386 285° West  Level Estimated
Mon 10:19:00 AM 66.6177 -28.8470 285° West  Level Estimated
Mon 10:20:00 AM 66.6493 -29.1563 285° West  Level Estimated
Mon 10:21:00 AM 66.6802 -29.4663 284° West  Level Estimated
Mon 10:22:00 AM 66.7106 -29.7771 284° West  Level Estimated
Mon 10:23:00 AM 66.7403 -30.0887 284° West  Level Estimated
Mon 10:24:00 AM 66.7695 -30.4010 283° West  Level Estimated
Mon 10:25:00 AM 66.7980 -30.7141 283° West  Level Estimated
Mon 10:26:00 AM 66.8259 -31.0279 283° West  Level Estimated
Mon 10:27:00 AM 66.8531 -31.3423 283° West  Level Estimated
Mon 10:28:00 AM 66.8798 -31.6575 282° West  Level Estimated
Mon 10:29:00 AM 66.9058 -31.9734 282° West  Level Estimated
Mon 10:30:00 AM 66.9312 -32.2899 282° West  Level Estimated
Mon 10:31:00 AM 66.9559 -32.6070 281° West  Level Estimated
Mon 10:32:00 AM 66.9800 -32.9248 281° West  Level Estimated
Mon 10:33:00 AM 67.0035 -33.2433 281° West  Level Estimated
Mon 10:34:00 AM 67.0263 -33.5623 281° West  Level Estimated
Mon 10:35:00 AM 67.0485 -33.8819 280° West  Level Estimated
Mon 10:36:00 AM 67.0701 -34.2021 280° West  Level Estimated
Mon 10:37:00 AM 67.0910 -34.5229 280° West  Level Estimated
Mon 10:38:00 AM 67.1113 -34.8442 279° West  Level Estimated
Mon 10:39:00 AM 67.1309 -35.1660 279° West  Level Estimated
Mon 10:40:00 AM 67.1499 -35.4884 279° West  Level Estimated
Mon 10:41:00 AM 67.1682 -35.8112 278° West  Level Estimated
Mon 10:42:00 AM 67.1859 -36.1345 278° West  Level Estimated
Mon 10:43:00 AM 67.2029 -36.4583 278° West  Level Estimated
Mon 10:44:00 AM 67.2193 -36.7826 278° West  Level Estimated
Mon 10:45:00 AM 67.2350 -37.1073 277° West  Level Estimated
Mon 10:46:00 AM 67.2501 -37.4324 277° West  Level Estimated
Mon 10:47:00 AM 67.2645 -37.7579 277° West  Level Estimated
Mon 10:48:00 AM 67.2782 -38.0837 276° West  Level Estimated
Mon 10:49:00 AM 67.2913 -38.4100 276° West  Level Estimated
Mon 10:50:00 AM 67.3037 -38.7366 276° West  Level Estimated
Mon 10:51:00 AM 67.3155 -39.0635 275° West  Level Estimated
Mon 10:52:00 AM 67.3265 -39.3907 275° West  Level Estimated
Mon 10:53:00 AM 67.3370 -39.7182 275° West  Level Estimated
Mon 10:54:00 AM 67.3467 -40.0460 275° West  Level Estimated
Mon 10:55:00 AM 67.3558 -40.3741 274° West  Level Estimated
Mon 10:56:00 AM 67.3642 -40.7024 274° West  Level Estimated
Mon 10:57:00 AM 67.3720 -41.0309 274° West  Level Estimated
Mon 10:58:00 AM 67.3791 -41.3596 273° West  Level Estimated
Mon 10:59:00 AM 67.3855 -41.6885 273° West  Level Estimated
Mon 11:00:00 AM 67.3912 -42.0176 273° West  Level Estimated
Mon 11:01:00 AM 67.3963 -42.3469 272° West  Level Estimated
Mon 11:01:29 AM 68.0760 -44.7690 272° West 511 588 33,000  Level FlightAware ADS-B
Mon 11:02:00 AM 67.4007 -42.6762 272° West  Level Estimated
Mon 11:02:03 AM 68.0760 -44.9590 270° West 511 588 33,000  Level FlightAware ADS-B
Mon 11:02:50 AM 68.0760 -45.2120 270° West 511 588 33,000  Level FlightAware ADS-B
Mon 11:03:30 AM 68.0750 -45.5240 270° West 511 588 33,000  Level FlightAware ADS-B
Mon 11:04:15 AM 68.0740 -45.8150 270° West 511 588 33,000  Level FlightAware ADS-B
Mon 11:04:52 AM 68.0730 -46.0230 269° West 511 588 33,000  Level FlightAware ADS-B
Mon 11:05:35 AM 68.0710 -46.3250 269° West 511 588 33,000  Level FlightAware ADS-B
Mon 11:06:14 AM 68.0690 -46.5520 269° West 512 589 33,000  Level FlightAware ADS-B
Mon 11:06:58 AM 68.0660 -46.8370 269° West 512 589 33,000  Level FlightAware ADS-B
Mon 11:07:40 AM 68.0620 -47.1080 268° West 512 589 33,000  Level FlightAware ADS-B
Mon 11:08:19 AM 68.0590 -47.3540 268° West 512 589 33,000  Level FlightAware ADS-B
Mon 11:09:05 AM 68.0550 -47.6510 268° West 513 590 33,000  Level FlightAware ADS-B
Mon 11:09:47 AM 68.0500 -47.9090 267° West 513 590 33,000  Level FlightAware ADS-B
Mon 11:10:25 AM 68.0460 -48.1500 268° West 513 590 33,000  Level FlightAware ADS-B
Mon 11:11:02 AM 68.0410 -48.3830 267° West 512 589 33,000  Level FlightAware ADS-B
Mon 11:11:52 AM 68.0350 -48.6980 267° West 512 589 33,000  Level FlightAware ADS-B
Mon 11:12:35 AM 68.0280 -48.9750 266° West 513 590 33,000  Level FlightAware ADS-B
Mon 11:13:17 AM 68.0220 -49.2400 267° West 512 589 33,000  Level FlightAware ADS-B
Mon 11:13:58 AM 68.0150 -49.4920 266° West 513 590 33,000  Level FlightAware ADS-B
Mon 11:14:40 AM 68.0070 -49.7560 265° West 513 590 33,000  Level FlightAware ADS-B
Mon 11:15:21 AM 67.9980 -50.0130 265° West 512 589 33,000  Level FlightAware ADS-B
Mon 11:16:04 AM 67.9820 -50.2800 261° West 510 587 33,000  Level FlightAware ADS-B
Mon 11:16:45 AM 67.9640 -50.5330 259° West 510 587 33,000  Level FlightAware ADS-B
Mon 11:17:30 AM 67.9450 -50.8090 260° West 508 585 33,000  Level FlightAware ADS-B
Mon 11:18:06 AM 67.9290 -51.0300 259° West 509 586 33,000  Level FlightAware ADS-B
Mon 11:18:51 AM 67.9080 -51.3060 259° West 509 586 33,000  Level FlightAware ADS-B
Mon 11:19:33 AM 67.8890 -51.5620 259° West 509 586 33,000  Level FlightAware ADS-B
Mon 11:20:15 AM 67.8690 -51.8190 258° West 510 587 33,000  Level FlightAware ADS-B
Mon 11:20:57 AM 67.8490 -52.0760 258° West 511 588 33,000  Level FlightAware ADS-B
Mon 11:21:41 AM 67.8270 -52.3510 258° West 512 589 33,000  Level FlightAware ADS-B
Mon 11:22:22 AM 67.8070 -52.5950 258° West 511 588 33,000  Level FlightAware ADS-B
Mon 11:23:02 AM 67.7870 -52.8390 258° West 511 588 33,000  Level FlightAware ADS-B
Mon 11:24:04 AM 67.7540 -53.2140 257° West 508 585 33,000  Level FlightAware ADS-B
Mon 11:24:49 AM 67.7300 -53.4910 257° West 508 585 33,000  Level FlightAware ADS-B
Mon 11:25:31 AM 67.7070 -53.7430 257° West 507 583 33,000  Level FlightAware ADS-B
Mon 11:26:36 AM 67.6770 -54.0650 256° West 506 582 33,000  Level FlightAware ADS-B
Mon 11:27:13 AM 67.6590 -54.2530 256° West 506 582 33,000  Level FlightAware ADS-B
Mon 11:27:50 AM 67.6410 -54.4410 256° West 506 582 33,000  Level FlightAware ADS-B
Mon 11:28:25 AM 67.6240 -54.6180 256° West 506 582 33,000  Level FlightAware ADS-B
Mon 11:29:14 AM 67.6000 -54.8670 256° West 506 582 33,000  Level FlightAware ADS-B
Mon 11:29:50 AM 67.5830 -55.0490 256° West 506 582 33,000  Level FlightAware ADS-B
Mon 11:30:38 AM 67.5600 -55.2920 256° West 506 582 33,000  Level FlightAware ADS-B
Mon 11:31:38 AM 67.4970 -55.8740 254° West 504 580 33,000  Level FlightAware ADS-B
Mon 11:32:14 AM 67.4780 -56.0530 255° West 504 580 33,000  Level FlightAware ADS-B
Mon 11:32:50 AM 67.4580 -56.2320 254° West 504 580 33,000  Level FlightAware ADS-B
Mon 11:33:50 AM 67.4250 -56.5300 254° West 504 580 33,000  Level FlightAware ADS-B
Mon 11:34:26 AM 67.4050 -56.7080 254° West 504 580 33,000  Level FlightAware ADS-B
Mon 11:35:27 AM 67.3720 -57.0100 254° West 504 580 33,000  Level FlightAware ADS-B
Mon 11:36:04 AM 67.3520 -57.1930 254° West 504 580 33,000  Level FlightAware ADS-B
Mon 11:36:53 AM 67.3250 -57.4360 254° West 504 580 33,000  Level FlightAware ADS-B
Mon 11:37:28 AM 67.3060 -57.6090 254° West 504 580 33,000  Level FlightAware ADS-B
Mon 11:37:42 AM 67.2333 -57.7000 257° West 520 598 33,000  Level Edmonton Center
Mon 11:38:05 AM 67.2860 -57.7910 254° West 504 580 33,000  Level FlightAware ADS-B
Mon 11:38:41 AM 67.2660 -57.9690 254° West 504 580 33,000  Level FlightAware ADS-B
Mon 11:38:42 AM 67.1833 -58.0667 251° West 520 598 33,000  Level Edmonton Center
Mon 11:39:29 AM 67.2400 -58.2050 254° West 504 580 33,000  Level FlightAware ADS-B
Mon 11:39:42 AM 67.1500 -58.4167 256° West 520 598 33,000  Level Edmonton Center
Mon 11:40:05 AM 67.2200 -58.3820 254° West 504 580 33,000  Level FlightAware ADS-B
Mon 11:40:41 AM 67.2000 -58.5590 254° West 504 580 33,000  Level FlightAware ADS-B
Mon 11:40:42 AM 67.1000 -58.7667 250° West 520 598 33,000  Level Edmonton Center
Mon 11:41:42 AM 67.0500 -59.0833 248° West 520 598 33,000  Level Edmonton Center
Mon 11:42:42 AM 67.0000 -59.4667 252° West 520 598 33,000  Level Edmonton Center
Mon 11:43:00 AM 67.1255 -59.3570 257° West  Level Estimated
Mon 11:43:42 AM 66.9667 -59.7833 255° West 510 587 33,000  Level Edmonton Center
Mon 11:44:42 AM 66.9000 -60.1000 242° Southwest 510 587 33,000 100 Level Edmonton Center
Mon 11:45:42 AM 66.8333 -60.4167 242° Southwest 520 598 33,200 500 Climbing Edmonton Center
Mon 11:46:42 AM 66.7667 -60.7667 244° Southwest 520 598 34,000 400 Climbing Edmonton Center
Mon 11:47:42 AM 66.7000 -61.0667 241° Southwest 520 598 34,000  Level Edmonton Center
Mon 11:48:42 AM 66.6333 -61.3833 242° Southwest 520 598 34,000  Level Edmonton Center
Mon 11:49:42 AM 66.5667 -61.6500 238° Southwest 510 587 34,000  Level Edmonton Center
Mon 11:50:42 AM 66.5167 -62.0000 250° West 510 587 34,000  Level Edmonton Center
Mon 11:51:42 AM 66.4333 -62.3000 235° Southwest 510 587 34,000  Level Edmonton Center
Mon 11:52:42 AM 66.3667 -62.6000 241° Southwest 510 587 34,000  Level Edmonton Center
Mon 11:53:42 AM 66.3000 -62.9333 244° Southwest 510 587 34,000  Level Edmonton Center
Mon 11:55:00 AM 66.2213 -63.3392 244° Southwest  Level FlightAware Approximate
Mon 11:55:42 AM 66.1500 -63.5167 244° Southwest 510 587 34,000  Level Edmonton Center
Mon 11:56:42 AM 66.1000 -63.8000 247° West 510 587 34,000  Level Edmonton Center
Mon 11:57:42 AM 66.0333 -64.1167 243° Southwest 510 587 34,000  Level Edmonton Center
Mon 11:58:42 AM 65.9500 -64.4167 236° Southwest 510 587 34,000  Level Edmonton Center
Mon 11:59:42 AM 65.8667 -64.7000 234° Southwest 510 587 34,000  Level Edmonton Center
Mon 12:00:42 PM 65.8000 -65.0167 243° Southwest 510 587 34,000  Level Edmonton Center
Mon 12:01:42 PM 65.7333 -65.3000 240° Southwest 510 587 34,000  Level Edmonton Center
Mon 12:02:42 PM 65.6500 -65.5833 235° Southwest 510 587 34,000  Level Edmonton Center
Mon 12:04:00 PM 65.5609 -65.9667 241° Southwest  Level FlightAware Approximate
Mon 12:08:48 PM 65.2500 -67.5333 237° Southwest 510 587 34,000  Level Montreal Center
Mon 12:09:48 PM 65.1667 -67.8000 233° Southwest 510 587 34,000  Level Montreal Center
Mon 12:10:42 PM 65.0333 -67.8833 195° South 510 587 34,000  Level Edmonton Center
Mon 12:11:00 PM 65.0647 -67.9855 240° Southwest  Level FlightAware Approximate
Mon 12:11:42 PM 64.9500 -68.1500 234° Southwest 510 587 34,000  Level Edmonton Center
Mon 12:12:00 PM 64.9916 -68.2677 239° Southwest  Level FlightAware Approximate
Mon 12:12:42 PM 64.9000 -68.4333 248° West 510 587 34,000  Level Edmonton Center
Mon 12:13:00 PM 64.9180 -68.5484 238° Southwest  Level FlightAware Approximate
Mon 12:13:48 PM 64.8333 -68.9167 252° West 510 587 34,000  Level Montreal Center
Mon 12:14:00 PM 64.8401 -68.8294 237° Southwest  Level FlightAware Approximate
Mon 12:14:48 PM 64.7667 -69.1833 240° Southwest 520 598 34,000  Level Montreal Center
Mon 12:15:48 PM 64.6833 -69.4667 236° Southwest 510 587 34,000  Level Montreal Center
Mon 12:16:48 PM 64.6000 -69.7167 232° Southwest 510 587 34,000  Level Montreal Center
Mon 12:17:48 PM 64.5167 -70.0167 237° Southwest 520 598 34,000 300 Level Montreal Center
Mon 12:18:48 PM 64.4333 -70.2667 232° Southwest 520 598 34,600 842 Climbing Montreal Center
Mon 12:19:42 PM 64.3000 -70.3333 192° South 510 587 35,600 700 Climbing Edmonton Center
Mon 12:20:48 PM 64.2667 -70.8000 261° West 510 587 36,000 190 Climbing Montreal Center
Mon 12:21:48 PM 64.1667 -71.0500 228° Southwest 510 587 36,000  Level Montreal Center
Mon 12:22:48 PM 64.1000 -71.3333 242° Southwest 510 587 36,000  Level Montreal Center
Mon 12:23:48 PM 64.0000 -71.5667 226° Southwest 510 587 36,000  Level Montreal Center
Mon 12:24:48 PM 63.9333 -71.8167 239° Southwest 510 587 36,000  Level Montreal Center
Mon 12:25:48 PM 63.8333 -72.0833 230° Southwest 510 587 36,000  Level Montreal Center
Mon 12:26:48 PM 63.7333 -72.3333 228° Southwest 510 587 36,000  Level Montreal Center
Mon 12:27:48 PM 63.6667 -72.5667 237° Southwest 510 587 36,000  Level Montreal Center
Mon 12:28:48 PM 63.5667 -72.8333 230° Southwest 510 587 36,000  Level Montreal Center
Mon 12:29:48 PM 63.4667 -73.0667 226° Southwest 500 575 36,000  Level Montreal Center
Mon 12:30:48 PM 63.3833 -73.3000 232° Southwest 500 575 36,000  Level Montreal Center
Mon 12:31:48 PM 63.3167 -73.5333 238° Southwest 490 564 36,000  Level Montreal Center
Mon 12:32:48 PM 63.2167 -73.7667 226° Southwest 500 575 36,000  Level Montreal Center
Mon 12:33:48 PM 63.1167 -74.0333 230° Southwest 500 575 36,000  Level Montreal Center
Mon 12:34:48 PM 63.0333 -74.2167 225° Southwest 480 552 36,000  Level Montreal Center
Mon 12:35:42 PM 62.9167 -74.2833 195° South 510 587 36,000  Level Edmonton Center
Mon 12:36:48 PM 62.8500 -74.7167 252° West 500 575 36,000  Level Montreal Center
Mon 12:37:48 PM 62.7667 -74.9667 234° Southwest 500 575 36,000  Level Montreal Center
Mon 12:38:48 PM 62.6833 -75.1833 230° Southwest 500 575 36,000  Level Montreal Center
Mon 12:39:42 PM 62.5500 -75.2167 187° South 500 575 36,000  Level Edmonton Center
Mon 12:40:42 PM 62.4500 -75.4500 227° Southwest 500 575 36,000  Level Edmonton Center
Mon 12:42:48 PM 62.3167 -76.1000 246° West 500 575 36,000  Level Montreal Center
Mon 12:43:42 PM 62.1833 -76.0833 177° South 500 575 36,000  Level Edmonton Center
Mon 12:44:42 PM 62.1000 -76.3333 235° Southwest 500 575 36,000  Level Edmonton Center
Mon 12:45:48 PM 62.0333 -76.7333 251° West 500 575 36,000  Level Montreal Center
Mon 12:46:48 PM 61.9333 -76.9500 226° Southwest 490 564 36,000  Level Montreal Center
Mon 12:47:48 PM 61.8333 -77.1667 226° Southwest 490 564 36,000  Level Montreal Center
Mon 12:48:48 PM 61.7500 -77.3667 229° Southwest 490 564 36,000  Level Montreal Center
Mon 12:49:48 PM 61.6500 -77.5833 226° Southwest 490 564 36,000  Level Montreal Center
Mon 12:50:48 PM 61.5667 -77.8167 233° Southwest 480 552 36,000  Level Montreal Center
Mon 12:51:48 PM 61.4833 -78.0333 231° Southwest 490 564 36,000  Level Montreal Center
Mon 12:52:48 PM 61.3667 -78.2333 219° Southwest 490 564 36,000  Level Montreal Center
Mon 12:53:48 PM 61.2833 -78.4333 229° Southwest 490 564 36,000  Level Montreal Center
Mon 12:54:48 PM 61.1833 -78.6333 224° Southwest 490 564 36,000  Level Montreal Center
Mon 12:55:48 PM 61.1000 -78.8333 229° Southwest 490 564 36,000  Level Montreal Center
Mon 12:56:48 PM 61.0000 -79.0333 224° Southwest 490 564 36,000  Level Montreal Center
Mon 12:57:48 PM 60.9000 -79.2333 224° Southwest 480 552 36,000  Level Montreal Center
Mon 12:58:42 PM 60.7667 -79.2500 183° South 490 564 36,000  Level Edmonton Center
Mon 12:59:42 PM 60.6833 -79.4333 227° Southwest 490 564 36,000  Level Edmonton Center
Mon 01:00:42 PM 60.6000 -79.6500 232° Southwest 490 564 36,000  Level Edmonton Center
Mon 01:01:42 PM 60.5000 -79.8500 225° Southwest 480 552 36,000  Level Edmonton Center
Mon 01:02:42 PM 60.4167 -80.0667 232° Southwest 480 552 36,000  Level Edmonton Center
Mon 01:04:42 PM 60.2500 -80.4667 230° Southwest 480 552 36,000  Level Edmonton Center
Mon 01:06:00 PM 60.1530 -80.7433 235° Southwest  Level FlightAware Approximate
Mon 01:06:42 PM 60.0833 -80.9333 235° Southwest 480 552 36,000  Level Edmonton Center
Mon 01:07:48 PM 60.0500 -81.3000 260° West 480 552 36,000  Level Montreal Center
Mon 01:08:48 PM 59.9500 -81.5333 229° Southwest 480 552 36,000  Level Montreal Center
Mon 01:09:48 PM 59.8833 -81.7500 239° Southwest 480 552 36,000  Level Montreal Center
Mon 01:10:48 PM 59.7833 -81.9333 223° Southwest 490 564 36,000  Level Montreal Center
Mon 01:11:48 PM 59.7000 -82.1500 233° Southwest 490 564 36,000  Level Montreal Center
Mon 01:12:42 PM 59.6000 -82.2167 199° South 490 564 36,000  Level Edmonton Center
Mon 01:13:42 PM 59.5167 -82.4167 231° Southwest 490 564 36,000  Level Edmonton Center
Mon 01:14:42 PM 59.4167 -82.6167 226° Southwest 490 564 36,000  Level Edmonton Center
Mon 01:15:42 PM 59.3500 -82.8500 241° Southwest 490 564 36,000  Level Edmonton Center
Mon 01:17:48 PM 59.2000 -83.4167 243° Southwest 480 552 36,000  Level Montreal Center
Mon 01:18:48 PM 59.1167 -83.6333 233° Southwest 480 552 36,000  Level Montreal Center
Mon 01:19:42 PM 59.0167 -83.6333 180° South 480 552 36,000  Level Edmonton Center
Mon 01:20:42 PM 58.9167 -83.8500 228° Southwest 490 564 36,000  Level Edmonton Center
Mon 01:21:42 PM 58.8333 -84.0500 231° Southwest 480 552 36,000  Level Edmonton Center
Mon 01:22:42 PM 58.7500 -84.2500 231° Southwest 480 552 36,000  Level Edmonton Center
Mon 01:23:42 PM 58.6500 -84.4667 228° Southwest 480 552 36,000  Level Edmonton Center
Mon 01:24:42 PM 58.5833 -84.6500 235° Southwest 490 564 36,000  Level Edmonton Center
Mon 01:25:42 PM 58.4833 -84.8333 224° Southwest 490 564 36,000  Level Edmonton Center
Mon 01:26:42 PM 58.4000 -85.0667 236° Southwest 490 564 36,000  Level Edmonton Center
Mon 01:27:42 PM 58.3000 -85.2500 224° Southwest 490 564 36,000  Level Edmonton Center
Mon 01:28:42 PM 58.2167 -85.4667 234° Southwest 490 564 36,000  Level Edmonton Center
Mon 01:29:42 PM 58.1333 -85.6500 229° Southwest 490 564 36,000  Level Edmonton Center
Mon 01:30:42 PM 58.0333 -85.8333 224° Southwest 490 564 36,000  Level Edmonton Center
Mon 01:31:42 PM 57.9500 -86.0500 234° Southwest 490 564 36,000  Level Edmonton Center
Mon 01:32:42 PM 57.8500 -86.2333 224° Southwest 490 564 36,000  Level Edmonton Center
Mon 01:33:48 PM 57.7667 -86.6167 248° West 490 564 36,000  Level Montreal Center
Mon 01:34:42 PM 57.6833 -86.6167 180° South 490 564 36,000  Level Edmonton Center
Mon 01:35:42 PM 57.5833 -86.8000 225° Southwest 490 564 36,000  Level Edmonton Center
Mon 01:36:42 PM 57.4833 -86.9833 225° Southwest 480 552 36,000  Level Edmonton Center
Mon 01:37:42 PM 57.4000 -87.2000 235° Southwest 490 564 36,000  Level Edmonton Center
Mon 01:38:42 PM 57.3000 -87.3667 222° Southwest 480 552 36,000  Level Edmonton Center
Mon 01:39:42 PM 57.2167 -87.5833 235° Southwest 470 541 36,000  Level Edmonton Center
Mon 01:40:42 PM 57.1333 -87.7500 227° Southwest 480 552 36,000  Level Edmonton Center
Mon 01:41:42 PM 57.0167 -87.9500 223° Southwest 480 552 36,000  Level Edmonton Center
Mon 01:42:42 PM 56.9333 -88.1000 225° Southwest 480 552 36,000  Level Edmonton Center
Mon 01:44:43 PM 56.7667 -88.5167 234° Southwest 480 552 36,000  Level Winnipeg Center
Mon 01:45:42 PM 56.6500 -88.6667 215° Southwest 480 552 36,000  Level Edmonton Center
Mon 01:46:43 PM 56.5833 -88.8667 239° Southwest 490 564 36,000  Level Winnipeg Center
Mon 01:47:42 PM 56.4667 -89.0000 212° Southwest 470 541 36,000  Level Edmonton Center
Mon 01:48:42 PM 56.3667 -89.2000 228° Southwest 490 564 36,000  Level Edmonton Center
Mon 01:49:43 PM 56.3000 -89.4167 241° Southwest 490 564 36,000  Level Winnipeg Center
Mon 01:50:43 PM 56.2000 -89.5833 223° Southwest 490 564 36,000  Level Winnipeg Center
Mon 01:51:42 PM 56.1000 -89.7167 217° Southwest 480 552 36,000  Level Edmonton Center
Mon 01:52:42 PM 56.0000 -89.8833 223° Southwest 480 552 36,000 250 Level Edmonton Center
Mon 01:53:42 PM 55.9167 -90.0500 228° Southwest 470 541 36,500 900 Climbing Edmonton Center
Mon 01:54:42 PM 55.8167 -90.2333 226° Southwest 480 552 37,800 750 Climbing Edmonton Center
Mon 01:55:42 PM 55.7333 -90.4167 231° Southwest 480 552 38,000 67 Climbing Edmonton Center
Mon 01:56:00 PM 55.7031 -90.4809 231° Southwest  Level FlightAware Approximate
Mon 01:57:42 PM 55.5500 -90.7667 227° Southwest 470 541 38,000  Level Edmonton Center
Mon 01:58:42 PM 55.4667 -90.9500 231° Southwest 470 541 38,000  Level Edmonton Center
Mon 01:59:42 PM 55.3667 -91.1167 223° Southwest 480 552 38,000  Level Edmonton Center
Mon 02:01:42 PM 55.1833 -91.4833 229° Southwest 480 552 38,000  Level Edmonton Center
Mon 02:02:42 PM 55.1000 -91.6333 226° Southwest 470 541 38,000  Level Edmonton Center
Mon 02:03:42 PM 55.0167 -91.8000 229° Southwest 490 564 38,000  Level Edmonton Center
Mon 02:04:42 PM 54.9167 -91.9833 227° Southwest 470 541 38,000  Level Edmonton Center
Mon 02:05:42 PM 54.8333 -92.1333 226° Southwest 470 541 38,000  Level Edmonton Center
Mon 02:06:42 PM 54.7500 -92.3167 232° Southwest 460 529 38,000  Level Edmonton Center
Mon 02:07:42 PM 54.6667 -92.4667 226° Southwest 460 529 38,000  Level Edmonton Center
Mon 02:08:42 PM 54.5667 -92.6500 227° Southwest 460 529 38,000  Level Edmonton Center
Mon 02:09:42 PM 54.4667 -92.7833 218° Southwest 460 529 38,000  Level Edmonton Center
Mon 02:10:42 PM 54.3833 -92.9667 232° Southwest 460 529 38,000  Level Edmonton Center
Mon 02:11:42 PM 54.3000 -93.1000 223° Southwest 460 529 38,000  Level Edmonton Center
Mon 02:12:42 PM 54.2167 -93.2833 232° Southwest 460 529 38,000  Level Edmonton Center
Mon 02:13:42 PM 54.1333 -93.4167 223° Southwest 460 529 38,000  Level Edmonton Center
Mon 02:14:42 PM 54.0333 -93.6000 227° Southwest 470 541 38,000  Level Edmonton Center
Mon 02:15:42 PM 53.9500 -93.7333 223° Southwest 460 529 38,000  Level Edmonton Center
Mon 02:16:42 PM 53.8500 -93.9167 227° Southwest 460 529 38,000  Level Edmonton Center
Mon 02:17:42 PM 53.7667 -94.0500 223° Southwest 460 529 38,000  Level Edmonton Center
Mon 02:18:43 PM 53.7000 -94.2167 236° Southwest 460 529 38,000  Level Winnipeg Center
Mon 02:19:43 PM 53.6000 -94.4000 227° Southwest 460 529 38,000  Level Winnipeg Center
Mon 02:20:43 PM 53.5000 -94.5500 222° Southwest 460 529 38,000  Level Winnipeg Center
Mon 02:21:43 PM 53.4167 -94.6833 224° Southwest 440 506 38,000  Level Winnipeg Center
Mon 02:22:42 PM 53.3167 -94.8000 215° Southwest 450 518 38,000  Level Edmonton Center
Mon 02:23:42 PM 53.2333 -94.9667 230° Southwest 450 518 38,000  Level Edmonton Center
Mon 02:24:42 PM 53.1167 -95.1000 214° Southwest 460 529 38,000  Level Edmonton Center
Mon 02:25:42 PM 53.0500 -95.2667 236° Southwest 450 518 38,000  Level Edmonton Center
Mon 02:26:42 PM 52.9500 -95.4000 219° Southwest 450 518 38,000  Level Edmonton Center
Mon 02:27:42 PM 52.8667 -95.5667 230° Southwest 460 529 38,000  Level Edmonton Center
Mon 02:28:42 PM 52.7667 -95.7000 219° Southwest 460 529 38,000  Level Edmonton Center
Mon 02:29:43 PM 52.6833 -95.8833 233° Southwest 460 529 38,000  Level Winnipeg Center
Mon 02:30:42 PM 52.5833 -95.9833 211° Southwest 460 529 38,000  Level Edmonton Center
Mon 02:38:13 PM 51.8980 -97.1330 211° Southwest 464 534 38,000  Level FlightAware ADS-B
Mon 02:38:53 PM 51.8350 -97.2270 223° Southwest 463 533 38,000  Level FlightAware ADS-B
Mon 02:39:29 PM 51.7840 -97.3020 222° Southwest 464 534 38,000  Level FlightAware ADS-B
Mon 02:40:16 PM 51.7050 -97.4220 223° Southwest 463 533 38,000  Level FlightAware ADS-B
Mon 02:40:51 PM 51.6490 -97.5060 223° Southwest 464 534 38,000  Level FlightAware ADS-B
Mon 02:41:33 PM 51.5830 -97.6020 222° Southwest 464 534 38,000  Level FlightAware ADS-B
Mon 02:42:13 PM 51.5220 -97.6920 223° Southwest 464 534 38,000  Level FlightAware ADS-B
Mon 02:42:53 PM 51.4590 -97.7850 223° Southwest 464 534 38,000  Level FlightAware ADS-B
Mon 02:44:10 PM 51.3410 -97.9560 222° Southwest 465 535 38,000  Level FlightAware ADS-B
Mon 02:44:49 PM 51.2720 -98.0550 222° Southwest 465 535 38,000  Level FlightAware ADS-B
Mon 02:45:32 PM 51.2100 -98.1450 222° Southwest 465 535 38,000  Level FlightAware ADS-B
Mon 02:46:00 PM 51.1600 -98.2160 222° Southwest 465 535 38,000  Level FlightAware ADS-B
Mon 02:46:48 PM 51.0830 -98.3280 222° Southwest 465 535 38,000  Level FlightAware ADS-B
Mon 02:47:32 PM 51.0120 -98.4290 222° Southwest 465 535 38,000  Level FlightAware ADS-B
Mon 02:48:08 PM 50.9530 -98.5130 222° Southwest 465 535 38,000  Level FlightAware ADS-B
Mon 02:48:46 PM 50.8940 -98.5940 221° Southwest 466 536 38,000  Level FlightAware ADS-B
Mon 02:49:32 PM 50.8200 -98.6980 222° Southwest 465 535 38,000  Level FlightAware ADS-B
Mon 02:50:12 PM 50.7550 -98.7910 222° Southwest 465 535 38,000  Level FlightAware ADS-B
Mon 02:50:56 PM 50.6840 -98.8900 221° Southwest 465 535 38,000  Level FlightAware ADS-B
Mon 02:51:36 PM 50.6200 -98.9800 222° Southwest 465 535 38,000  Level FlightAware ADS-B
Mon 02:52:16 PM 50.5540 -99.0710 221° Southwest 466 536 38,000  Level FlightAware ADS-B
Mon 02:53:00 PM 50.4840 -99.1680 221° Southwest 467 537 38,000  Level FlightAware ADS-B
Mon 02:53:40 PM 50.4190 -99.2570 221° Southwest 467 537 38,000  Level FlightAware ADS-B
Mon 02:54:24 PM 50.3460 -99.3570 221° Southwest 468 539 38,000  Level FlightAware ADS-B
Mon 02:55:08 PM 50.2750 -99.4530 221° Southwest 469 540 38,000  Level FlightAware ADS-B
Mon 02:55:46 PM 50.2120 -99.5380 221° Southwest 470 541 38,000  Level FlightAware ADS-B
Mon 02:56:30 PM 50.1390 -99.6380 221° Southwest 472 543 38,000  Level FlightAware ADS-B
Mon 02:57:12 PM 50.0710 -99.7290 221° Southwest 472 543 38,000  Level FlightAware ADS-B
Mon 02:57:54 PM 50.0000 -99.8250 221° Southwest 473 544 38,000  Level FlightAware ADS-B
Mon 02:58:36 PM 49.9300 -99.9170 220° Southwest 475 547 38,000  Level FlightAware ADS-B
Mon 02:59:18 PM 49.8550 -99.9970 215° Southwest 477 549 38,000  Level FlightAware ADS-B
Mon 02:59:54 PM 49.7890 -100.0650 214° Southwest 479 551 38,000  Level FlightAware ADS-B
Mon 03:00:36 PM 49.7090 -100.1450 213° Southwest 480 552 38,000  Level FlightAware ADS-B
Mon 03:01:17 PM 49.6340 -100.2190 213° Southwest 481 554 38,000  Level FlightAware ADS-B
Mon 03:01:54 PM 49.5670 -100.2850 213° Southwest 483 556 38,000  Level FlightAware ADS-B
Mon 03:02:35 PM 49.4850 -100.3640 212° Southwest 484 557 38,000  Level FlightAware ADS-B
Mon 03:03:15 PM 49.4100 -100.4380 213° Southwest 487 560 38,000  Level FlightAware ADS-B
Mon 03:03:54 PM 49.3360 -100.5080 212° Southwest 488 562 38,000  Level FlightAware ADS-B
Mon 03:04:37 PM 49.2540 -100.5870 212° Southwest 489 563 38,000  Level FlightAware ADS-B
Mon 03:05:36 PM 49.1490 -100.6890 212° Southwest 490 564 38,000  Level FlightAware ADS-B
Mon 03:06:33 PM 49.0310 -100.8030 212° Southwest 492 566 38,000  Level FlightAware ADS-B
Mon 03:07:15 PM 48.9500 -100.8780 211° Southwest 494 568 38,000  Level FlightAware ADS-B
Mon 03:07:49 PM 48.8840 -100.9430 213° Southwest 495 570 38,000  Level FlightAware ADS-B
Mon 03:08:39 PM 48.8000 -101.0190 211° Southwest 495 570 38,000  Level FlightAware ADS-B
Mon 03:09:15 PM 48.7400 -101.0740 211° Southwest 495 570 38,000  Level FlightAware ADS-B
Mon 03:10:04 PM 48.6580 -101.1480 211° Southwest 495 570 38,000  Level FlightAware ADS-B
Mon 03:10:38 PM 48.6020 -101.2000 212° Southwest 495 570 38,000  Level FlightAware ADS-B
Mon 03:11:15 PM 48.5400 -101.2560 211° Southwest 495 570 38,000  Level FlightAware ADS-B
Mon 03:11:49 PM 48.4830 -101.3070 211° Southwest 495 570 38,000  Level FlightAware ADS-B
Mon 03:12:51 PM 48.3800 -101.4010 211° Southwest 495 570 38,000  Level FlightAware ADS-B
Mon 03:13:29 PM 48.3160 -101.4580 211° Southwest 495 570 38,000  Level FlightAware ADS-B
Mon 03:14:05 PM 48.2560 -101.5130 211° Southwest 495 570 38,000  Level FlightAware ADS-B
Mon 03:14:42 PM 48.1940 -101.5680 211° Southwest 495 570 38,000  Level FlightAware ADS-B
Mon 03:15:31 PM 48.1130 -101.6420 211° Southwest 495 570 38,000  Level FlightAware ADS-B
Mon 03:16:07 PM 48.0530 -101.6960 211° Southwest 495 570 38,000  Level FlightAware ADS-B
Mon 03:16:43 PM 47.9920 -101.7500 211° Southwest 495 570 38,000  Level FlightAware ADS-B
Mon 03:17:29 PM 47.9160 -101.8190 211° Southwest 495 570 38,000  Level FlightAware ADS-B
Mon 03:18:37 PM 47.6031 -102.1222 211° Southwest 516 594 38,000  Level Salt Lake Center
Mon 03:19:39 PM 47.4808 -102.2314 211° Southwest 515 593 38,000  Level Salt Lake Center
Mon 03:20:41 PM 47.3564 -102.3408 211° Southwest 516 594 38,000  Level Salt Lake Center
Mon 03:21:43 PM 47.2314 -102.4494 211° Southwest 518 596 38,000  Level Salt Lake Center
Mon 03:22:45 PM 47.0839 -102.5781 211° Southwest 517 595 38,000  Level Salt Lake Center
Mon 03:23:47 PM 46.9589 -102.6861 211° Southwest 518 596 38,000  Level Salt Lake Center
Mon 03:24:49 PM 46.8339 -102.7956 211° Southwest 519 597 38,000  Level Salt Lake Center
Mon 03:25:51 PM 46.7136 -102.9125 214° Southwest 519 597 38,000  Level Salt Lake Center
Mon 03:26:53 PM 46.5878 -103.0197 210° Southwest 522 601 38,000  Level Salt Lake Center
Mon 03:27:55 PM 46.4642 -103.1322 212° Southwest 522 601 38,000  Level Salt Lake Center
Mon 03:28:57 PM 46.3417 -103.2419 212° Southwest 521 600 38,000  Level Salt Lake Center
Mon 03:29:59 PM 46.1922 -103.3794 213° Southwest 524 603 38,000  Level Salt Lake Center
Mon 03:31:01 PM 46.0667 -103.4944 212° Southwest 528 608 38,000  Level Salt Lake Center
Mon 03:32:03 PM 45.9406 -103.6056 212° Southwest 531 611 38,000  Level Salt Lake Center
Mon 03:33:05 PM 45.8150 -103.7125 211° Southwest 530 610 38,000  Level Salt Lake Center
Mon 03:34:07 PM 45.6892 -103.8231 212° Southwest 530 610 38,000  Level Salt Lake Center
Mon 03:35:09 PM 45.5631 -103.9364 212° Southwest 534 615 38,000  Level Salt Lake Center
Mon 03:36:11 PM 45.4150 -104.0767 214° Southwest 533 613 38,000  Level Salt Lake Center
Mon 03:37:45 PM 45.2286 -104.2625 215° Southwest 528 608 38,000  Level Denver Center
Mon 03:38:40 PM 45.1136 -104.3833 217° Southwest 533 613 38,000  Level Salt Lake Center
Mon 03:39:42 PM 44.9978 -104.5003 216° Southwest 534 615 38,000  Level Salt Lake Center
Mon 03:40:44 PM 44.8639 -104.6281 214° Southwest 527 606 38,000  Level Salt Lake Center
Mon 03:41:46 PM 44.7469 -104.7397 214° Southwest 526 605 38,000  Level Salt Lake Center
Mon 03:42:48 PM 44.6325 -104.8533 215° Southwest 526 605 38,000  Level Salt Lake Center
Mon 03:43:50 PM 44.4969 -104.9831 214° Southwest 528 608 38,000  Level Salt Lake Center
Mon 03:44:52 PM 44.3819 -105.0919 214° Southwest 526 605 38,000  Level Salt Lake Center
Mon 03:45:54 PM 44.2458 -105.2200 214° Southwest 526 605 38,000  Level Salt Lake Center
Mon 03:46:56 PM 44.1300 -105.3292 214° Southwest 527 606 38,000  Level Salt Lake Center
Mon 03:47:58 PM 43.9947 -105.4564 214° Southwest 527 606 38,000  Level Salt Lake Center
Mon 03:49:06 PM 43.8594 -105.5769 213° Southwest 528 608 38,000  Level Denver Center
Mon 03:50:08 PM 43.7419 -105.6856 214° Southwest 529 609 38,000  Level Denver Center
Mon 03:51:10 PM 43.6058 -105.8106 214° Southwest 529 609 38,000  Level Denver Center
Mon 03:52:12 PM 43.4900 -105.9172 214° Southwest 527 606 38,000  Level Denver Center
Mon 03:53:14 PM 43.3531 -106.0411 213° Southwest 528 608 38,000  Level Denver Center
Mon 03:54:16 PM 43.2372 -106.1469 214° Southwest 525 604 38,000  Level Denver Center
Mon 03:55:17 PM 43.1014 -106.2692 213° Southwest 525 604 38,000  Level Denver Center
Mon 03:56:19 PM 42.9886 -106.3781 215° Southwest 523 602 38,000  Level Denver Center
Mon 03:57:21 PM 42.8603 -106.5122 217° Southwest 521 600 38,000  Level Denver Center
Mon 03:58:23 PM 42.7494 -106.6214 216° Southwest 517 595 38,000  Level Denver Center
Mon 03:59:25 PM 42.6183 -106.7478 215° Southwest 519 597 38,000  Level Denver Center
Mon 04:00:27 PM 42.5078 -106.8556 216° Southwest 513 590 38,000  Level Denver Center
Mon 04:01:29 PM 42.3856 -106.9753 216° Southwest 508 585 38,000  Level Denver Center
Mon 04:02:31 PM 42.2769 -107.0814 216° Southwest 504 580 38,000  Level Denver Center
Mon 04:03:32 PM 42.1486 -107.2053 216° Southwest 504 580 38,000  Level Denver Center
Mon 04:04:34 PM 42.0383 -107.3111 215° Southwest 506 582 38,000  Level Denver Center
Mon 04:05:36 PM 41.9089 -107.4339 215° Southwest 509 586 38,000  Level Denver Center
Mon 04:06:34 PM 41.8006 -107.5403 216° Southwest 508 585 38,000  Level Salt Lake Center
Mon 04:07:36 PM 41.7028 -107.6625 223° Southwest 501 577 38,000  Level Salt Lake Center
Mon 04:08:42 PM 41.5953 -107.8117 226° Southwest 501 577 38,000  Level Denver Center
Mon 04:09:44 PM 41.5031 -107.9386 226° Southwest 498 573 38,000  Level Denver Center
Mon 04:10:46 PM 41.3975 -108.0894 227° Southwest 497 572 38,000  Level Denver Center
Mon 04:16:26 PM 40.8570 -108.8450 227° Southwest 490 564 38,000  Level FlightAware ADS-B
Mon 04:17:01 PM 40.8020 -108.9200 226° Southwest 491 565 38,000  Level FlightAware ADS-B
Mon 04:17:52 PM 40.7190 -109.0320 226° Southwest 491 565 38,000  Level FlightAware ADS-B
Mon 04:18:27 PM 40.6660 -109.1050 226° Southwest 490 564 38,000  Level FlightAware ADS-B
Mon 04:19:03 PM 40.6100 -109.1830 227° Southwest 489 563 38,000  Level FlightAware ADS-B
Mon 04:19:48 PM 40.5370 -109.2810 226° Southwest 490 564 38,000  Level FlightAware ADS-B
Mon 04:20:28 PM 40.4740 -109.3660 226° Southwest 490 564 38,000  Level FlightAware ADS-B
Mon 04:21:04 PM 40.4170 -109.4430 226° Southwest 489 563 38,000  Level FlightAware ADS-B
Mon 04:21:49 PM 40.3480 -109.5370 226° Southwest 490 564 38,000  Level FlightAware ADS-B
Mon 04:22:30 PM 40.2820 -109.6240 225° Southwest 487 560 38,000  Level FlightAware ADS-B
Mon 04:23:02 PM 40.2320 -109.6910 226° Southwest 485 558 38,000  Level FlightAware ADS-B
Mon 04:23:32 PM 40.1830 -109.7560 225° Southwest 486 559 38,000  Level FlightAware ADS-B
Mon 04:24:14 PM 40.1170 -109.8440 226° Southwest 485 558 38,000  Level FlightAware ADS-B
Mon 04:24:56 PM 40.0510 -109.9320 226° Southwest 484 557 38,000  Level FlightAware ADS-B
Mon 04:25:37 PM 39.9850 -110.0140 224° Southwest 484 557 38,000  Level FlightAware ADS-B
Mon 04:26:02 PM 39.9480 -110.0540 220° Southwest 484 557 38,000  Level FlightAware ADS-B
Mon 04:26:47 PM 39.8630 -110.1430 219° Southwest 484 557 38,000  Level FlightAware ADS-B
Mon 04:27:32 PM 39.7850 -110.2220 218° Southwest 482 555 38,000  Level FlightAware ADS-B
Mon 04:28:05 PM 39.7330 -110.2760 219° Southwest 481 554 38,000  Level FlightAware ADS-B
Mon 04:28:46 PM 39.6550 -110.3570 219° Southwest 480 552 38,000  Level FlightAware ADS-B
Mon 04:29:31 PM 39.5760 -110.4370 218° Southwest 479 551 38,000  Level FlightAware ADS-B
Mon 04:30:04 PM 39.5180 -110.4960 218° Southwest 479 551 38,000  Level FlightAware ADS-B
Mon 04:30:45 PM 39.4560 -110.5600 219° Southwest 479 551 38,000  Level FlightAware ADS-B
Mon 04:31:30 PM 39.3700 -110.6470 218° Southwest 478 550 38,000  Level FlightAware ADS-B
Mon 04:32:26 PM 39.2720 -110.7470 218° Southwest 476 548 38,000  Level FlightAware ADS-B
Mon 04:33:45 PM 39.1960 -110.8240 218° Southwest 475 547 38,000  Level FlightAware ADS-B
Mon 04:34:35 PM 39.1980 -110.8220 38° Northeast 475 547 38,000  Level FlightAware ADS-B
Mon 04:34:55 PM 39.0128 -111.0070 218° Southwest 474 545 38,000  Level FlightAware ADS-B
Mon 04:35:26 PM 38.9591 -111.0610 218° Southwest 474 545 38,000  Level FlightAware ADS-B
Mon 04:36:11 PM 38.8900 -111.1300 218° Southwest 473 544 38,000  Level FlightAware ADS-B
Mon 04:36:39 PM 38.8327 -111.1870 218° Southwest 474 545 38,000  Level FlightAware ADS-B
Mon 04:37:37 PM 38.7410 -111.2670 214° Southwest 474 545 38,000  Level FlightAware ADS-B
Mon 04:38:00 PM 38.6790 -111.3050 206° Southwest 474 545 38,000  Level FlightAware ADS-B
Mon 04:39:00 PM 38.5615 -111.3830 207° Southwest 476 548 38,000  Level FlightAware ADS-B
Mon 04:39:31 PM 38.5050 -111.4200 207° Southwest 475 547 38,000  Level FlightAware ADS-B
Mon 04:39:43 PM 38.4789 -111.4370 207° Southwest 476 548 38,000  Level FlightAware ADS-B
Mon 04:40:17 PM 38.4112 -111.4820 208° Southwest 476 548 38,000  Level FlightAware ADS-B
Mon 04:40:51 PM 38.3636 -111.5183 208° Southwest 475 547 38,000  Level Los Angeles Center
Mon 04:41:38 PM 38.2681 -111.5803 207° Southwest 475 547 38,000  Level Salt Lake Center
Mon 04:42:39 PM 38.1519 -111.6583 208° Southwest 472 543 38,000  Level Salt Lake Center
Mon 04:43:41 PM 38.0353 -111.7361 208° Southwest 472 543 38,000  Level Salt Lake Center
Mon 04:44:43 PM 37.9183 -111.8125 207° Southwest 472 543 38,000  Level Salt Lake Center
Mon 04:50:38 PM 37.3000 -112.4000 207° Southwest 468 539 38,000  Level FlightAware ADS-B
Mon 04:51:20 PM 37.2500 -112.4990 238° Southwest 468 539 38,000  Level FlightAware ADS-B
Mon 04:52:02 PM 37.2010 -112.5950 237° Southwest 470 541 38,000  Level FlightAware ADS-B
Mon 04:52:40 PM 37.1560 -112.6820 237° Southwest 471 542 38,000  Level FlightAware ADS-B
Mon 04:53:24 PM 37.1030 -112.7850 237° Southwest 473 544 38,000  Level FlightAware ADS-B
Mon 04:54:06 PM 37.0540 -112.8800 237° Southwest 475 547 38,000  Level FlightAware ADS-B
Mon 04:54:44 PM 37.0070 -112.9700 237° Southwest 477 549 38,000  Level FlightAware ADS-B
Mon 04:55:34 PM 36.9470 -113.0840 237° Southwest 478 550 38,000  Level FlightAware ADS-B
Mon 04:56:14 PM 36.8990 -113.1770 237° Southwest 479 551 38,000  Level FlightAware ADS-B
Mon 04:56:54 PM 36.8500 -113.2720 237° Southwest 480 552 38,000  Level FlightAware ADS-B
Mon 04:57:38 PM 36.7970 -113.3720 237° Southwest 482 555 38,000  Level FlightAware ADS-B
Mon 04:58:14 PM 36.7520 -113.4550 236° Southwest 483 556 38,000  Level FlightAware ADS-B
Mon 04:59:02 PM 36.6940 -113.5670 237° Southwest 484 557 38,000  Level FlightAware ADS-B
Mon 04:59:42 PM 36.6440 -113.6600 236° Southwest 483 556 38,000  Level FlightAware ADS-B
Mon 05:00:26 PM 36.5900 -113.7620 237° Southwest 482 555 38,000  Level FlightAware ADS-B
Mon 05:01:10 PM 36.5360 -113.8640 237° Southwest 482 555 38,000  Level FlightAware ADS-B
Mon 05:01:48 PM 36.4890 -113.9540 237° Southwest 482 555 38,000  Level FlightAware ADS-B
Mon 05:02:30 PM 36.4370 -114.0480 236° Southwest 481 554 38,000  Level FlightAware ADS-B
Mon 05:03:08 PM 36.3900 -114.1380 237° Southwest 480 552 38,000  Level FlightAware ADS-B
Mon 05:03:48 PM 36.3410 -114.2270 236° Southwest 478 550 38,000  Level FlightAware ADS-B
Mon 05:04:30 PM 36.2890 -114.3250 237° Southwest 478 550 38,000  Level FlightAware ADS-B
Mon 05:05:04 PM 36.2480 -114.4000 236° Southwest 477 549 38,000  Level FlightAware ADS-B
Mon 05:05:46 PM 36.1960 -114.4950 236° Southwest 476 548 38,000  Level FlightAware ADS-B
Mon 05:06:28 PM 36.1450 -114.5900 236° Southwest 474 545 38,000  Level FlightAware ADS-B
Mon 05:07:14 PM 36.0900 -114.6910 236° Southwest 472 543 38,000  Level FlightAware ADS-B
Mon 05:07:54 PM 36.0400 -114.7830 236° Southwest 470 541 38,000  Level FlightAware ADS-B
Mon 05:08:36 PM 35.9960 -114.8810 241° Southwest 468 539 38,000  Level FlightAware ADS-B
Mon 05:09:18 PM 35.9530 -114.9770 241° Southwest 469 540 38,000  Level FlightAware ADS-B
Mon 05:09:55 PM 35.9130 -115.0660 241° Southwest 470 541 38,000  Level FlightAware ADS-B
Mon 05:10:34 PM 35.8600 -115.1460 231° Southwest 470 541 38,000  Level FlightAware ADS-B
Mon 05:11:32 PM 35.7460 -115.2000 201° Southwest 473 544 38,000  Level FlightAware ADS-B
Mon 05:12:12 PM 35.6580 -115.2090 185° South 473 544 38,000  Level FlightAware ADS-B
Mon 05:12:54 PM 35.5630 -115.2180 184° South 472 543 38,000  Level FlightAware ADS-B
Mon 05:13:36 PM 35.4730 -115.2270 185° South 473 544 38,000  Level FlightAware ADS-B
Mon 05:14:17 PM 35.3820 -115.2370 185° South 474 545 38,000  Level FlightAware ADS-B
Mon 05:15:01 PM 35.2830 -115.2460 184° South 475 547 38,000  Level FlightAware ADS-B
Mon 05:15:43 PM 35.1920 -115.2540 184° South 476 548 38,000  Level FlightAware ADS-B
Mon 05:16:25 PM 35.1020 -115.2630 185° South 476 548 38,000  Level FlightAware ADS-B
Mon 05:16:53 PM 35.0410 -115.2880 199° South 477 549 38,000  Level FlightAware ADS-B
Mon 05:17:35 PM 34.9800 -115.3640 226° Southwest 477 549 38,000  Level FlightAware ADS-B
Mon 05:18:20 PM 34.9280 -115.4680 239° Southwest 479 551 38,000  Level FlightAware ADS-B
Mon 05:18:49 PM 34.8940 -115.5400 240° Southwest 480 552 38,000  Level FlightAware ADS-B
Mon 05:19:43 PM 34.8390 -115.6520 239° Southwest 481 554 38,000 -235 Level FlightAware ADS-B
Mon 05:20:31 PM 34.7770 -115.7780 239° Southwest 481 554 37,600 -1,098 Descending FlightAware ADS-B
Mon 05:21:05 PM 34.7410 -115.8520 239° Southwest 480 552 36,500 -880 Descending FlightAware ADS-B
Mon 05:21:46 PM 34.7010 -115.9330 239° Southwest 480 552 36,500 -2,500 Level FlightAware ADS-B
Mon 05:22:29 PM 34.6420 -116.0520 239° Southwest 478 550 33,000 -3,325 Descending FlightAware ADS-B
Mon 05:23:09 PM 34.5960 -116.1410 238° Southwest 471 542 31,900 -1,714 Descending FlightAware ADS-B
Mon 05:23:53 PM 34.5470 -116.2420 240° Southwest 468 539 30,600 -1,800 Descending FlightAware ADS-B
Mon 05:24:29 PM 34.5070 -116.3210 238° Southwest 463 533 29,500 -776 Descending FlightAware ADS-B
Mon 05:25:18 PM 34.4600 -116.4120 238° Southwest 463 533 29,500  Level FlightAware ADS-B
Mon 05:25:54 PM 34.4250 -116.4800 238° Southwest 463 533 29,500  Level FlightAware ADS-B
Mon 05:26:30 PM 34.3900 -116.5470 238° Southwest 463 533 29,500  Level FlightAware ADS-B
Mon 05:27:19 PM 34.3430 -116.6390 238° Southwest 463 533 29,500  Level FlightAware ADS-B
Mon 05:28:08 PM 34.2960 -116.7300 238° Southwest 463 533 29,500 -5,442 Level FlightAware ADS-B
Mon 05:28:45 PM 34.2430 -116.8430 240° Southwest 423 487 21,700 -6,270 Descending FlightAware ADS-B
Mon 05:29:37 PM 34.1950 -116.9370 238° Southwest 415 478 20,200 -1,653 Descending FlightAware ADS-B
Mon 05:30:23 PM 34.1450 -117.0360 239° Southwest 397 457 19,000 -1,357 Descending FlightAware ADS-B
Mon 05:31:01 PM 34.1140 -117.0960 238° Southwest 387 445 18,300 -1,841 Descending FlightAware ADS-B
Mon 05:31:51 PM 34.0600 -117.2160 242° Southwest 385 443 16,300 -2,114 Descending FlightAware ADS-B
Mon 05:32:29 PM 34.0430 -117.2960 256° West 379 436 15,200 -1,737 Descending FlightAware ADS-B
Mon 05:33:07 PM 34.0360 -117.3730 264° West 358 412 14,100 -1,385 Descending FlightAware ADS-B
Mon 05:33:47 PM 34.0290 -117.4480 264° West 323 372 13,400 -1,670 Descending FlightAware ADS-B
Mon 05:35:02 PM 34.0170 -117.5810 264° West 328 377 10,900 -1,550 Descending FlightAware ADS-B
Mon 05:35:47 PM 34.0090 -117.6600 263° West 310 357 10,300 -767 Descending FlightAware ADS-B
Mon 05:36:28 PM 34.0020 -117.7300 263° West 307 353 9,800 -778 Descending FlightAware ADS-B
Mon 05:36:41 PM 34.0000 -117.7530 264° West 307 353 9,600 -1,171 Descending FlightAware ADS-B
Mon 05:37:09 PM 33.9960 -117.8000 264° West 308 354 9,000 -1,263 Descending FlightAware ADS-B
Mon 05:37:19 PM 33.9940 -117.8160 261° West 307 353 8,800 -1,263 Descending FlightAware ADS-B
Mon 05:37:47 PM 33.9900 -117.8560 263° West 303 349 8,200 -1,258 Descending FlightAware ADS-B
Mon 05:38:21 PM 33.9830 -117.9210 263° West 296 341 7,500 -1,400 Descending FlightAware ADS-B
Mon 05:38:47 PM 33.9790 -117.9620 263° West 280 322 6,800 -1,463 Descending FlightAware ADS-B
Mon 05:39:02 PM 33.9780 -117.9810 266° West 272 313 6,500 -1,364 Descending FlightAware ADS-B
Mon 05:39:31 PM 33.9730 -118.0280 263° West 263 303 5,800 -1,400 Descending FlightAware ADS-B
Mon 05:40:02 PM 33.9690 -118.0730 264° West 262 302 5,100 -1,393 Descending FlightAware ADS-B
Mon 05:40:27 PM 33.9650 -118.1060 262° West 257 296 4,500 -1,418 Descending FlightAware ADS-B
Mon 05:40:57 PM 33.9610 -118.1500 264° West 236 272 3,800 -1,309 Descending FlightAware ADS-B
Mon 05:41:22 PM 33.9580 -118.1800 263° West 220 253 3,300 -982 Descending FlightAware ADS-B
Mon 05:41:52 PM 33.9540 -118.2130 262° West 206 237 2,900 -1,000 Descending FlightAware ADS-B
Mon 05:42:34 PM 33.9500 -118.2630 265° West 190 219 2,100 -1,034 Descending FlightAware ADS-B
Mon 05:42:50 PM 33.9480 -118.2780 261° West 180 207 1,900 -878 Descending FlightAware ADS-B
Mon 05:43:15 PM 33.9450 -118.3030 262° West 165 190 1,500 -889 Descending FlightAware ADS-B
Mon 05:44:11 PM 33.9400 -118.3530 263° West 156 180 700 -845 Descending FlightAware ADS-B
Mon 05:44:26 PM 33.9390 -118.3650 264° West 154 177 500 -340 Descending FlightAware ADS-B
Mon 05:45:04 PM 33.9360 -118.3930 263° West 155 178 400 -158 Descending FlightAware ADS-B
Mon 05:53:00 PM 33.9333 -118.4000 259° West  Level FlightAware Approximate
Mon 05:54:00 PM 33.9425 -118.4081 259° West  Level Estimated
Mon 05:55:00 PM 33.9425 -118.4081 259° West  Level Estimated
Mon 05:56:00 PM 33.9425 -118.4081 259° West  Level Estimated
Mon 05:57:00 PM 33.9425 -118.4081 259° West  Level Estimated
Mon 05:58:00 PM 33.9425 -118.4081 259° West  Level Estimated
Mon 05:59:00 PM 33.9425 -118.4081 259° West  Level Estimated
Mon 06:00:00 PM 33.9425 -118.4081 259° West  Level Estimated
Mon 06:01:00 PM 33.9425 -118.4081 259° West  Level Estimated

Login

Don't have an account? Register now (free) for customized features, flight alerts, and more!